sensor_id;sensor_type;location;lat;lon;timestamp;P1;durP1;ratioP1;P2;durP2;ratioP2
3083;SDS011;1552;51.952;7.618;2022-12-29T00:01:23;2.67;;;2.10;;
3083;SDS011;1552;51.952;7.618;2022-12-29T00:03:50;2.93;;;1.87;;
3083;SDS011;1552;51.952;7.618;2022-12-29T00:06:17;1.80;;;1.70;;
3083;SDS011;1552;51.952;7.618;2022-12-29T00:08:44;3.70;;;1.70;;
3083;SDS011;1552;51.952;7.618;2022-12-29T00:11:11;1.60;;;1.50;;
3083;SDS011;1552;51.952;7.618;2022-12-29T00:13:38;3.97;;;1.80;;
3083;SDS011;1552;51.952;7.618;2022-12-29T00:16:22;2.43;;;1.63;;
3083;SDS011;1552;51.952;7.618;2022-12-29T00:18:51;2.07;;;1.60;;
3083;SDS011;1552;51.952;7.618;2022-12-29T00:21:20;2.23;;;1.43;;
3083;SDS011;1552;51.952;7.618;2022-12-29T00:24:04;1.50;;;1.40;;
3083;SDS011;1552;51.952;7.618;2022-12-29T00:26:48;1.77;;;1.67;;
3083;SDS011;1552;51.952;7.618;2022-12-29T00:29:34;1.60;;;1.33;;
3083;SDS011;1552;51.952;7.618;2022-12-29T00:32:18;1.13;;;1.03;;
3083;SDS011;1552;51.952;7.618;2022-12-29T00:35:02;1.80;;;1.23;;
3083;SDS011;1552;51.952;7.618;2022-12-29T00:37:36;1.30;;;1.20;;
3083;SDS011;1552;51.952;7.618;2022-12-29T00:40:20;1.50;;;1.13;;
3083;SDS011;1552;51.952;7.618;2022-12-29T00:43:04;3.00;;;1.27;;
3083;SDS011;1552;51.952;7.618;2022-12-29T00:45:48;2.70;;;1.30;;
3083;SDS011;1552;51.952;7.618;2022-12-29T00:48:15;0.90;;;0.90;;
3083;SDS011;1552;51.952;7.618;2022-12-29T00:51:01;2.53;;;1.30;;
3083;SDS011;1552;51.952;7.618;2022-12-29T00:53:28;1.20;;;1.10;;
3083;SDS011;1552;51.952;7.618;2022-12-29T00:55:54;1.53;;;0.90;;
3083;SDS011;1552;51.952;7.618;2022-12-29T00:58:21;1.30;;;1.20;;
3083;SDS011;1552;51.952;7.618;2022-12-29T01:00:47;1.27;;;1.17;;
3083;SDS011;1552;51.952;7.618;2022-12-29T01:03:13;1.63;;;1.20;;
3083;SDS011;1552;51.952;7.618;2022-12-29T01:05:40;1.37;;;1.10;;
3083;SDS011;1552;51.952;7.618;2022-12-29T01:08:06;1.27;;;1.10;;
3083;SDS011;1552;51.952;7.618;2022-12-29T01:10:34;1.13;;;1.03;;
3083;SDS011;1552;51.952;7.618;2022-12-29T01:12:59;2.97;;;1.20;;
3083;SDS011;1552;51.952;7.618;2022-12-29T01:15:25;1.80;;;1.20;;
3083;SDS011;1552;51.952;7.618;2022-12-29T01:17:52;1.80;;;1.40;;
3083;SDS011;1552;51.952;7.618;2022-12-29T01:20:18;1.30;;;1.20;;
3083;SDS011;1552;51.952;7.618;2022-12-29T01:22:44;1.10;;;1.10;;
3083;SDS011;1552;51.952;7.618;2022-12-29T01:25:11;1.50;;;1.40;;
3083;SDS011;1552;51.952;7.618;2022-12-29T01:27:38;2.00;;;1.60;;
3083;SDS011;1552;51.952;7.618;2022-12-29T01:30:05;2.20;;;1.60;;
3083;SDS011;1552;51.952;7.618;2022-12-29T01:32:32;1.40;;;1.30;;
3083;SDS011;1552;51.952;7.618;2022-12-29T01:34:58;1.73;;;1.50;;
3083;SDS011;1552;51.952;7.618;2022-12-29T01:37:24;1.50;;;1.40;;
3083;SDS011;1552;51.952;7.618;2022-12-29T01:39:51;2.47;;;1.37;;
3083;SDS011;1552;51.952;7.618;2022-12-29T01:42:18;1.80;;;1.30;;
3083;SDS011;1552;51.952;7.618;2022-12-29T01:44:50;2.53;;;1.80;;
3083;SDS011;1552;51.952;7.618;2022-12-29T01:47:18;1.57;;;1.40;;
3083;SDS011;1552;51.952;7.618;2022-12-29T01:49:45;2.70;;;1.33;;
3083;SDS011;1552;51.952;7.618;2022-12-29T01:52:11;1.83;;;1.50;;
3083;SDS011;1552;51.952;7.618;2022-12-29T01:54:38;2.17;;;1.57;;
3083;SDS011;1552;51.952;7.618;2022-12-29T01:57:07;3.63;;;1.53;;
3083;SDS011;1552;51.952;7.618;2022-12-29T01:59:35;2.83;;;1.17;;
3083;SDS011;1552;51.952;7.618;2022-12-29T02:02:04;1.50;;;1.40;;
3083;SDS011;1552;51.952;7.618;2022-12-29T02:04:31;1.30;;;1.20;;
3083;SDS011;1552;51.952;7.618;2022-12-29T02:06:59;1.80;;;1.50;;
3083;SDS011;1552;51.952;7.618;2022-12-29T02:09:27;1.37;;;1.20;;
3083;SDS011;1552;51.952;7.618;2022-12-29T02:11:53;1.30;;;1.20;;
3083;SDS011;1552;51.952;7.618;2022-12-29T02:14:20;1.23;;;1.13;;
3083;SDS011;1552;51.952;7.618;2022-12-29T02:16:51;1.50;;;1.40;;
3083;SDS011;1552;51.952;7.618;2022-12-29T02:22:09;1.23;;;1.13;;
3083;SDS011;1552;51.952;7.618;2022-12-29T02:27:36;1.33;;;1.20;;
3083;SDS011;1552;51.952;7.618;2022-12-29T02:30:06;0.80;;;0.80;;
3083;SDS011;1552;51.952;7.618;2022-12-29T02:32:39;1.17;;;0.97;;
3083;SDS011;1552;51.952;7.618;2022-12-29T02:35:09;1.87;;;1.00;;
3083;SDS011;1552;51.952;7.618;2022-12-29T02:37:39;0.83;;;0.83;;
3083;SDS011;1552;51.952;7.618;2022-12-29T02:40:08;1.10;;;1.00;;
3083;SDS011;1552;51.952;7.618;2022-12-29T02:42:41;1.60;;;0.80;;
3083;SDS011;1552;51.952;7.618;2022-12-29T02:45:11;0.93;;;0.90;;
3083;SDS011;1552;51.952;7.618;2022-12-29T02:47:41;0.80;;;0.73;;
3083;SDS011;1552;51.952;7.618;2022-12-29T02:50:11;0.80;;;0.80;;
3083;SDS011;1552;51.952;7.618;2022-12-29T02:52:40;0.70;;;0.70;;
3083;SDS011;1552;51.952;7.618;2022-12-29T02:55:10;2.77;;;0.87;;
3083;SDS011;1552;51.952;7.618;2022-12-29T02:57:35;1.33;;;0.80;;
3083;SDS011;1552;51.952;7.618;2022-12-29T03:00:03;1.90;;;1.37;;
3083;SDS011;1552;51.952;7.618;2022-12-29T03:02:42;1.57;;;0.80;;
3083;SDS011;1552;51.952;7.618;2022-12-29T03:05:22;0.63;;;0.63;;
3083;SDS011;1552;51.952;7.618;2022-12-29T03:07:53;1.70;;;1.10;;
3083;SDS011;1552;51.952;7.618;2022-12-29T03:10:25;0.90;;;0.80;;
3083;SDS011;1552;51.952;7.618;2022-12-29T03:13:01;1.30;;;0.93;;
3083;SDS011;1552;51.952;7.618;2022-12-29T03:15:46;0.70;;;0.70;;
3083;SDS011;1552;51.952;7.618;2022-12-29T03:18:32;2.00;;;1.03;;
3083;SDS011;1552;51.952;7.618;2022-12-29T03:21:02;1.80;;;0.80;;
3083;SDS011;1552;51.952;7.618;2022-12-29T03:23:29;1.43;;;0.80;;
3083;SDS011;1552;51.952;7.618;2022-12-29T03:25:58;0.93;;;0.90;;
3083;SDS011;1552;51.952;7.618;2022-12-29T03:28:27;0.87;;;0.77;;
3083;SDS011;1552;51.952;7.618;2022-12-29T03:30:54;2.60;;;1.03;;
3083;SDS011;1552;51.952;7.618;2022-12-29T03:33:21;0.63;;;0.63;;
3083;SDS011;1552;51.952;7.618;2022-12-29T03:35:50;1.60;;;0.80;;
3083;SDS011;1552;51.952;7.618;2022-12-29T03:38:19;1.13;;;0.70;;
3083;SDS011;1552;51.952;7.618;2022-12-29T03:40:47;0.67;;;0.67;;
3083;SDS011;1552;51.952;7.618;2022-12-29T03:43:14;0.83;;;0.70;;
3083;SDS011;1552;51.952;7.618;2022-12-29T03:45:41;2.10;;;0.90;;
3083;SDS011;1552;51.952;7.618;2022-12-29T03:48:07;0.77;;;0.77;;
3083;SDS011;1552;51.952;7.618;2022-12-29T03:50:34;2.30;;;1.10;;
3083;SDS011;1552;51.952;7.618;2022-12-29T03:53:02;1.20;;;0.80;;
3083;SDS011;1552;51.952;7.618;2022-12-29T03:55:28;1.63;;;0.90;;
3083;SDS011;1552;51.952;7.618;2022-12-29T03:57:54;1.53;;;0.90;;
3083;SDS011;1552;51.952;7.618;2022-12-29T04:00:20;2.03;;;1.30;;
3083;SDS011;1552;51.952;7.618;2022-12-29T04:02:47;1.67;;;1.30;;
3083;SDS011;1552;51.952;7.618;2022-12-29T04:05:13;2.73;;;1.10;;
3083;SDS011;1552;51.952;7.618;2022-12-29T04:07:40;2.50;;;0.80;;
3083;SDS011;1552;51.952;7.618;2022-12-29T04:10:08;2.73;;;1.00;;
3083;SDS011;1552;51.952;7.618;2022-12-29T04:12:34;2.20;;;1.17;;
3083;SDS011;1552;51.952;7.618;2022-12-29T04:15:00;0.90;;;0.70;;
3083;SDS011;1552;51.952;7.618;2022-12-29T04:17:27;3.77;;;1.03;;
3083;SDS011;1552;51.952;7.618;2022-12-29T04:19:53;2.20;;;0.87;;
3083;SDS011;1552;51.952;7.618;2022-12-29T04:22:40;2.73;;;1.00;;
3083;SDS011;1552;51.952;7.618;2022-12-29T04:25:08;2.33;;;0.97;;
3083;SDS011;1552;51.952;7.618;2022-12-29T04:27:35;3.17;;;0.97;;
3083;SDS011;1552;51.952;7.618;2022-12-29T04:30:03;1.83;;;0.80;;
3083;SDS011;1552;51.952;7.618;2022-12-29T04:32:30;2.73;;;0.87;;
3083;SDS011;1552;51.952;7.618;2022-12-29T04:34:56;0.70;;;0.70;;
3083;SDS011;1552;51.952;7.618;2022-12-29T04:37:22;0.90;;;0.90;;
3083;SDS011;1552;51.952;7.618;2022-12-29T04:39:49;1.20;;;1.10;;
3083;SDS011;1552;51.952;7.618;2022-12-29T04:42:18;2.20;;;1.23;;
3083;SDS011;1552;51.952;7.618;2022-12-29T04:44:44;1.80;;;1.23;;
3083;SDS011;1552;51.952;7.618;2022-12-29T04:47:10;1.50;;;1.20;;
3083;SDS011;1552;51.952;7.618;2022-12-29T04:49:37;3.53;;;1.50;;
3083;SDS011;1552;51.952;7.618;2022-12-29T04:52:03;2.77;;;1.60;;
3083;SDS011;1552;51.952;7.618;2022-12-29T04:54:29;2.30;;;1.47;;
3083;SDS011;1552;51.952;7.618;2022-12-29T04:56:56;2.47;;;1.07;;
3083;SDS011;1552;51.952;7.618;2022-12-29T04:59:23;1.47;;;1.33;;
3083;SDS011;1552;51.952;7.618;2022-12-29T05:01:50;1.63;;;1.53;;
3083;SDS011;1552;51.952;7.618;2022-12-29T05:04:16;3.40;;;1.90;;
3083;SDS011;1552;51.952;7.618;2022-12-29T05:06:42;4.07;;;1.50;;
3083;SDS011;1552;51.952;7.618;2022-12-29T05:09:09;1.60;;;1.50;;
3083;SDS011;1552;51.952;7.618;2022-12-29T05:11:35;4.50;;;1.90;;
3083;SDS011;1552;51.952;7.618;2022-12-29T05:14:02;1.93;;;1.30;;
3083;SDS011;1552;51.952;7.618;2022-12-29T05:16:29;2.40;;;1.27;;
3083;SDS011;1552;51.952;7.618;2022-12-29T05:18:56;1.87;;;0.60;;
3083;SDS011;1552;51.952;7.618;2022-12-29T05:21:22;1.47;;;0.60;;
3083;SDS011;1552;51.952;7.618;2022-12-29T05:23:49;0.50;;;0.50;;
3083;SDS011;1552;51.952;7.618;2022-12-29T05:26:15;1.43;;;0.90;;
3083;SDS011;1552;51.952;7.618;2022-12-29T05:28:41;0.60;;;0.60;;
3083;SDS011;1552;51.952;7.618;2022-12-29T05:31:07;2.00;;;0.70;;
3083;SDS011;1552;51.952;7.618;2022-12-29T05:33:35;1.27;;;0.83;;
3083;SDS011;1552;51.952;7.618;2022-12-29T05:36:03;0.85;;;0.60;;
3083;SDS011;1552;51.952;7.618;2022-12-29T05:38:29;2.30;;;0.70;;
3083;SDS011;1552;51.952;7.618;2022-12-29T05:40:56;3.30;;;0.83;;
3083;SDS011;1552;51.952;7.618;2022-12-29T05:43:22;1.90;;;0.50;;
3083;SDS011;1552;51.952;7.618;2022-12-29T05:45:49;0.83;;;0.70;;
3083;SDS011;1552;51.952;7.618;2022-12-29T05:48:17;0.50;;;0.50;;
3083;SDS011;1552;51.952;7.618;2022-12-29T05:50:47;0.70;;;0.70;;
3083;SDS011;1552;51.952;7.618;2022-12-29T05:53:14;0.93;;;0.40;;
3083;SDS011;1552;51.952;7.618;2022-12-29T05:55:40;2.10;;;0.60;;
3083;SDS011;1552;51.952;7.618;2022-12-29T05:58:08;2.83;;;0.67;;
3083;SDS011;1552;51.952;7.618;2022-12-29T06:00:34;1.73;;;0.57;;
3083;SDS011;1552;51.952;7.618;2022-12-29T06:03:00;0.97;;;0.37;;
3083;SDS011;1552;51.952;7.618;2022-12-29T06:05:27;0.80;;;0.60;;
3083;SDS011;1552;51.952;7.618;2022-12-29T06:07:55;2.20;;;0.60;;
3083;SDS011;1552;51.952;7.618;2022-12-29T06:10:21;1.73;;;0.60;;
3083;SDS011;1552;51.952;7.618;2022-12-29T06:12:48;1.87;;;0.60;;
3083;SDS011;1552;51.952;7.618;2022-12-29T06:15:14;1.37;;;0.50;;
3083;SDS011;1552;51.952;7.618;2022-12-29T06:17:41;2.53;;;0.77;;
3083;SDS011;1552;51.952;7.618;2022-12-29T06:20:07;0.57;;;0.57;;
3083;SDS011;1552;51.952;7.618;2022-12-29T06:22:34;3.03;;;0.70;;
3083;SDS011;1552;51.952;7.618;2022-12-29T06:25:02;1.70;;;0.80;;
3083;SDS011;1552;51.952;7.618;2022-12-29T06:27:28;4.63;;;0.90;;
3083;SDS011;1552;51.952;7.618;2022-12-29T06:29:55;2.37;;;0.60;;
3083;SDS011;1552;51.952;7.618;2022-12-29T06:32:21;1.20;;;0.50;;
3083;SDS011;1552;51.952;7.618;2022-12-29T06:34:47;1.83;;;0.70;;
3083;SDS011;1552;51.952;7.618;2022-12-29T06:37:14;1.67;;;0.87;;
3083;SDS011;1552;51.952;7.618;2022-12-29T06:39:40;4.13;;;0.83;;
3083;SDS011;1552;51.952;7.618;2022-12-29T06:42:09;2.40;;;0.60;;
3083;SDS011;1552;51.952;7.618;2022-12-29T06:44:36;1.97;;;0.70;;
3083;SDS011;1552;51.952;7.618;2022-12-29T06:47:02;1.50;;;0.63;;
3083;SDS011;1552;51.952;7.618;2022-12-29T06:49:29;2.50;;;0.53;;
3083;SDS011;1552;51.952;7.618;2022-12-29T06:51:55;2.40;;;0.97;;
3083;SDS011;1552;51.952;7.618;2022-12-29T06:54:23;2.40;;;0.80;;
3083;SDS011;1552;51.952;7.618;2022-12-29T06:56:49;2.67;;;1.10;;
3083;SDS011;1552;51.952;7.618;2022-12-29T06:59:17;1.83;;;0.80;;
3083;SDS011;1552;51.952;7.618;2022-12-29T07:01:46;0.87;;;0.60;;
3083;SDS011;1552;51.952;7.618;2022-12-29T07:04:12;5.80;;;0.90;;
3083;SDS011;1552;51.952;7.618;2022-12-29T07:06:39;1.63;;;1.00;;
3083;SDS011;1552;51.952;7.618;2022-12-29T07:09:06;5.30;;;0.97;;
3083;SDS011;1552;51.952;7.618;2022-12-29T07:11:33;3.40;;;1.00;;
3083;SDS011;1552;51.952;7.618;2022-12-29T07:13:59;3.50;;;0.97;;
3083;SDS011;1552;51.952;7.618;2022-12-29T07:16:27;3.27;;;0.90;;
3083;SDS011;1552;51.952;7.618;2022-12-29T07:18:55;4.40;;;1.60;;
3083;SDS011;1552;51.952;7.618;2022-12-29T07:21:21;7.07;;;1.20;;
3083;SDS011;1552;51.952;7.618;2022-12-29T07:23:48;2.57;;;0.93;;
3083;SDS011;1552;51.952;7.618;2022-12-29T07:26:14;4.20;;;0.80;;
3083;SDS011;1552;51.952;7.618;2022-12-29T07:28:42;3.63;;;1.13;;
3083;SDS011;1552;51.952;7.618;2022-12-29T07:31:12;3.33;;;1.27;;
3083;SDS011;1552;51.952;7.618;2022-12-29T07:33:41;5.33;;;1.07;;
3083;SDS011;1552;51.952;7.618;2022-12-29T07:36:08;5.93;;;1.33;;
3083;SDS011;1552;51.952;7.618;2022-12-29T07:38:34;4.60;;;1.20;;
3083;SDS011;1552;51.952;7.618;2022-12-29T07:41:01;3.23;;;1.10;;
3083;SDS011;1552;51.952;7.618;2022-12-29T07:43:27;8.03;;;1.67;;
3083;SDS011;1552;51.952;7.618;2022-12-29T07:45:54;4.47;;;1.23;;
3083;SDS011;1552;51.952;7.618;2022-12-29T07:48:20;3.63;;;1.10;;
3083;SDS011;1552;51.952;7.618;2022-12-29T07:50:49;2.90;;;1.03;;
3083;SDS011;1552;51.952;7.618;2022-12-29T07:53:16;5.23;;;1.23;;
3083;SDS011;1552;51.952;7.618;2022-12-29T07:55:42;2.80;;;0.90;;
3083;SDS011;1552;51.952;7.618;2022-12-29T07:58:08;2.80;;;1.00;;
3083;SDS011;1552;51.952;7.618;2022-12-29T08:00:35;3.97;;;1.33;;
3083;SDS011;1552;51.952;7.618;2022-12-29T08:03:03;2.90;;;1.00;;
3083;SDS011;1552;51.952;7.618;2022-12-29T08:05:29;4.97;;;0.93;;
3083;SDS011;1552;51.952;7.618;2022-12-29T08:07:58;5.10;;;1.63;;
3083;SDS011;1552;51.952;7.618;2022-12-29T08:10:24;3.90;;;1.40;;
3083;SDS011;1552;51.952;7.618;2022-12-29T08:12:51;4.63;;;1.40;;
3083;SDS011;1552;51.952;7.618;2022-12-29T08:15:18;5.23;;;1.00;;
3083;SDS011;1552;51.952;7.618;2022-12-29T08:17:44;5.47;;;1.17;;
3083;SDS011;1552;51.952;7.618;2022-12-29T08:20:11;6.03;;;1.07;;
3083;SDS011;1552;51.952;7.618;2022-12-29T08:22:37;6.53;;;1.50;;
3083;SDS011;1552;51.952;7.618;2022-12-29T08:25:05;7.97;;;1.03;;
3083;SDS011;1552;51.952;7.618;2022-12-29T08:27:32;4.10;;;1.30;;
3083;SDS011;1552;51.952;7.618;2022-12-29T08:29:58;4.87;;;1.07;;
3083;SDS011;1552;51.952;7.618;2022-12-29T08:32:25;3.37;;;1.33;;
3083;SDS011;1552;51.952;7.618;2022-12-29T08:34:53;3.93;;;1.10;;
3083;SDS011;1552;51.952;7.618;2022-12-29T08:37:20;5.23;;;1.00;;
3083;SDS011;1552;51.952;7.618;2022-12-29T08:39:47;3.87;;;0.90;;
3083;SDS011;1552;51.952;7.618;2022-12-29T08:42:14;4.67;;;1.30;;
3083;SDS011;1552;51.952;7.618;2022-12-29T08:44:41;2.90;;;1.07;;
3083;SDS011;1552;51.952;7.618;2022-12-29T08:47:08;5.57;;;1.60;;
3083;SDS011;1552;51.952;7.618;2022-12-29T08:49:35;2.07;;;1.17;;
3083;SDS011;1552;51.952;7.618;2022-12-29T08:52:02;5.27;;;1.10;;
3083;SDS011;1552;51.952;7.618;2022-12-29T08:54:28;4.77;;;1.20;;
3083;SDS011;1552;51.952;7.618;2022-12-29T08:56:54;5.90;;;1.50;;
3083;SDS011;1552;51.952;7.618;2022-12-29T08:59:22;4.67;;;1.70;;
3083;SDS011;1552;51.952;7.618;2022-12-29T09:01:48;5.73;;;1.97;;
3083;SDS011;1552;51.952;7.618;2022-12-29T09:04:15;4.67;;;1.53;;
3083;SDS011;1552;51.952;7.618;2022-12-29T09:06:41;7.50;;;1.20;;
3083;SDS011;1552;51.952;7.618;2022-12-29T09:09:08;5.20;;;1.10;;
3083;SDS011;1552;51.952;7.618;2022-12-29T09:11:35;5.33;;;1.70;;
3083;SDS011;1552;51.952;7.618;2022-12-29T09:14:01;10.50;;;2.00;;
3083;SDS011;1552;51.952;7.618;2022-12-29T09:16:29;6.87;;;1.60;;
3083;SDS011;1552;51.952;7.618;2022-12-29T09:18:55;7.70;;;1.33;;
3083;SDS011;1552;51.952;7.618;2022-12-29T09:21:21;7.80;;;1.10;;
3083;SDS011;1552;51.952;7.618;2022-12-29T09:23:48;6.37;;;1.20;;
3083;SDS011;1552;51.952;7.618;2022-12-29T09:26:14;7.27;;;2.17;;
3083;SDS011;1552;51.952;7.618;2022-12-29T09:28:41;3.23;;;1.13;;
3083;SDS011;1552;51.952;7.618;2022-12-29T09:31:09;5.87;;;1.47;;
3083;SDS011;1552;51.952;7.618;2022-12-29T09:33:37;6.57;;;1.33;;
3083;SDS011;1552;51.952;7.618;2022-12-29T09:36:03;5.93;;;1.13;;
3083;SDS011;1552;51.952;7.618;2022-12-29T09:38:29;4.53;;;1.30;;
3083;SDS011;1552;51.952;7.618;2022-12-29T09:40:57;5.03;;;1.23;;
3083;SDS011;1552;51.952;7.618;2022-12-29T09:43:42;5.13;;;1.23;;
3083;SDS011;1552;51.952;7.618;2022-12-29T09:46:13;9.43;;;1.50;;
3083;SDS011;1552;51.952;7.618;2022-12-29T09:48:43;5.13;;;1.27;;
3083;SDS011;1552;51.952;7.618;2022-12-29T09:51:11;6.20;;;1.30;;
3083;SDS011;1552;51.952;7.618;2022-12-29T09:53:40;5.70;;;1.30;;
3083;SDS011;1552;51.952;7.618;2022-12-29T09:56:07;6.20;;;1.53;;
3083;SDS011;1552;51.952;7.618;2022-12-29T09:58:37;6.20;;;1.50;;
3083;SDS011;1552;51.952;7.618;2022-12-29T10:01:06;7.03;;;2.00;;
3083;SDS011;1552;51.952;7.618;2022-12-29T10:03:36;7.50;;;1.33;;
3083;SDS011;1552;51.952;7.618;2022-12-29T10:06:09;4.57;;;1.27;;
3083;SDS011;1552;51.952;7.618;2022-12-29T10:08:37;7.07;;;1.70;;
3083;SDS011;1552;51.952;7.618;2022-12-29T10:11:07;5.47;;;1.53;;
3083;SDS011;1552;51.952;7.618;2022-12-29T10:13:40;5.03;;;1.50;;
3083;SDS011;1552;51.952;7.618;2022-12-29T10:16:09;5.77;;;1.33;;
3083;SDS011;1552;51.952;7.618;2022-12-29T10:18:45;7.60;;;1.70;;
3083;SDS011;1552;51.952;7.618;2022-12-29T10:21:17;4.90;;;1.20;;
3083;SDS011;1552;51.952;7.618;2022-12-29T10:23:47;4.63;;;1.20;;
3083;SDS011;1552;51.952;7.618;2022-12-29T10:26:17;9.63;;;1.50;;
3083;SDS011;1552;51.952;7.618;2022-12-29T10:28:44;6.20;;;1.60;;
3083;SDS011;1552;51.952;7.618;2022-12-29T10:31:13;3.10;;;1.20;;
3083;SDS011;1552;51.952;7.618;2022-12-29T10:33:45;5.03;;;1.80;;
3083;SDS011;1552;51.952;7.618;2022-12-29T10:36:14;5.17;;;1.50;;
3083;SDS011;1552;51.952;7.618;2022-12-29T10:38:44;8.13;;;1.70;;
3083;SDS011;1552;51.952;7.618;2022-12-29T10:41:13;4.53;;;2.00;;
3083;SDS011;1552;51.952;7.618;2022-12-29T10:43:43;6.27;;;1.83;;
3083;SDS011;1552;51.952;7.618;2022-12-29T10:46:12;5.57;;;1.70;;
3083;SDS011;1552;51.952;7.618;2022-12-29T10:48:39;8.00;;;1.87;;
3083;SDS011;1552;51.952;7.618;2022-12-29T10:51:20;6.77;;;1.30;;
3083;SDS011;1552;51.952;7.618;2022-12-29T10:53:50;5.70;;;1.43;;
3083;SDS011;1552;51.952;7.618;2022-12-29T10:56:21;5.37;;;1.30;;
3083;SDS011;1552;51.952;7.618;2022-12-29T10:58:51;4.57;;;1.30;;
3083;SDS011;1552;51.952;7.618;2022-12-29T11:01:20;6.20;;;1.50;;
3083;SDS011;1552;51.952;7.618;2022-12-29T11:03:50;4.20;;;1.20;;
3083;SDS011;1552;51.952;7.618;2022-12-29T11:06:24;7.60;;;1.70;;
3083;SDS011;1552;51.952;7.618;2022-12-29T11:11:43;8.80;;;2.00;;
3083;SDS011;1552;51.952;7.618;2022-12-29T11:14:12;9.30;;;1.77;;
3083;SDS011;1552;51.952;7.618;2022-12-29T11:16:39;8.07;;;1.57;;
3083;SDS011;1552;51.952;7.618;2022-12-29T11:19:10;4.37;;;1.50;;
3083;SDS011;1552;51.952;7.618;2022-12-29T11:21:45;3.67;;;1.47;;
3083;SDS011;1552;51.952;7.618;2022-12-29T11:24:18;6.03;;;1.67;;
3083;SDS011;1552;51.952;7.618;2022-12-29T11:26:47;5.67;;;1.47;;
3083;SDS011;1552;51.952;7.618;2022-12-29T11:29:22;6.77;;;1.30;;
3083;SDS011;1552;51.952;7.618;2022-12-29T11:31:49;5.50;;;1.30;;
3083;SDS011;1552;51.952;7.618;2022-12-29T11:34:17;8.13;;;2.87;;
3083;SDS011;1552;51.952;7.618;2022-12-29T11:36:43;11.00;;;1.90;;
3083;SDS011;1552;51.952;7.618;2022-12-29T11:39:16;8.17;;;2.00;;
3083;SDS011;1552;51.952;7.618;2022-12-29T11:41:52;5.87;;;1.40;;
3083;SDS011;1552;51.952;7.618;2022-12-29T11:44:19;6.37;;;1.60;;
3083;SDS011;1552;51.952;7.618;2022-12-29T11:46:46;6.83;;;1.50;;
3083;SDS011;1552;51.952;7.618;2022-12-29T11:49:13;4.13;;;1.23;;
3083;SDS011;1552;51.952;7.618;2022-12-29T11:51:46;6.87;;;1.30;;
3083;SDS011;1552;51.952;7.618;2022-12-29T11:54:15;9.13;;;1.70;;
3083;SDS011;1552;51.952;7.618;2022-12-29T11:56:43;6.93;;;1.60;;
3083;SDS011;1552;51.952;7.618;2022-12-29T11:59:25;5.37;;;1.50;;
3083;SDS011;1552;51.952;7.618;2022-12-29T12:02:03;4.07;;;1.37;;
3083;SDS011;1552;51.952;7.618;2022-12-29T12:04:35;7.33;;;1.70;;
3083;SDS011;1552;51.952;7.618;2022-12-29T12:07:04;4.80;;;1.43;;
3083;SDS011;1552;51.952;7.618;2022-12-29T12:09:35;7.33;;;1.43;;
3083;SDS011;1552;51.952;7.618;2022-12-29T12:12:02;8.23;;;1.57;;
3083;SDS011;1552;51.952;7.618;2022-12-29T12:14:31;4.83;;;1.70;;
3083;SDS011;1552;51.952;7.618;2022-12-29T12:17:00;7.73;;;1.47;;
3083;SDS011;1552;51.952;7.618;2022-12-29T12:19:31;6.53;;;1.40;;
3083;SDS011;1552;51.952;7.618;2022-12-29T12:21:58;5.70;;;1.30;;
3083;SDS011;1552;51.952;7.618;2022-12-29T12:24:37;6.77;;;1.40;;
3083;SDS011;1552;51.952;7.618;2022-12-29T12:27:09;3.47;;;1.33;;
3083;SDS011;1552;51.952;7.618;2022-12-29T12:29:41;9.73;;;2.23;;
3083;SDS011;1552;51.952;7.618;2022-12-29T12:32:11;7.23;;;1.47;;
3083;SDS011;1552;51.952;7.618;2022-12-29T12:34:41;4.10;;;1.40;;
3083;SDS011;1552;51.952;7.618;2022-12-29T12:40:00;4.00;;;1.50;;
3083;SDS011;1552;51.952;7.618;2022-12-29T12:42:35;5.17;;;1.20;;
3083;SDS011;1552;51.952;7.618;2022-12-29T12:45:24;7.70;;;1.57;;
3083;SDS011;1552;51.952;7.618;2022-12-29T12:47:55;4.27;;;1.20;;
3083;SDS011;1552;51.952;7.618;2022-12-29T12:50:29;4.70;;;1.97;;
3083;SDS011;1552;51.952;7.618;2022-12-29T12:53:03;5.67;;;1.30;;
3083;SDS011;1552;51.952;7.618;2022-12-29T12:55:43;10.50;;;1.73;;
3083;SDS011;1552;51.952;7.618;2022-12-29T12:58:15;9.37;;;1.60;;
3083;SDS011;1552;51.952;7.618;2022-12-29T13:00:47;5.07;;;1.37;;
3083;SDS011;1552;51.952;7.618;2022-12-29T13:03:17;5.43;;;1.87;;
3083;SDS011;1552;51.952;7.618;2022-12-29T13:05:49;2.90;;;0.87;;
3083;SDS011;1552;51.952;7.618;2022-12-29T13:08:27;5.20;;;1.50;;
3083;SDS011;1552;51.952;7.618;2022-12-29T13:10:57;6.83;;;1.73;;
3083;SDS011;1552;51.952;7.618;2022-12-29T13:13:32;4.53;;;1.50;;
3083;SDS011;1552;51.952;7.618;2022-12-29T13:16:05;7.47;;;1.40;;
3083;SDS011;1552;51.952;7.618;2022-12-29T13:18:34;8.93;;;1.53;;
3083;SDS011;1552;51.952;7.618;2022-12-29T13:21:05;5.57;;;1.50;;
3083;SDS011;1552;51.952;7.618;2022-12-29T13:23:34;11.07;;;1.87;;
3083;SDS011;1552;51.952;7.618;2022-12-29T13:26:04;6.17;;;1.50;;
3083;SDS011;1552;51.952;7.618;2022-12-29T13:28:35;8.53;;;1.67;;
3083;SDS011;1552;51.952;7.618;2022-12-29T13:31:07;8.23;;;1.60;;
3083;SDS011;1552;51.952;7.618;2022-12-29T13:33:38;7.73;;;1.70;;
3083;SDS011;1552;51.952;7.618;2022-12-29T13:36:13;5.23;;;1.53;;
3083;SDS011;1552;51.952;7.618;2022-12-29T13:38:42;10.30;;;1.80;;
3083;SDS011;1552;51.952;7.618;2022-12-29T13:41:11;8.33;;;1.40;;
3083;SDS011;1552;51.952;7.618;2022-12-29T13:43:40;8.60;;;1.80;;
3083;SDS011;1552;51.952;7.618;2022-12-29T13:46:11;8.70;;;1.60;;
3083;SDS011;1552;51.952;7.618;2022-12-29T13:48:39;10.80;;;1.50;;
3083;SDS011;1552;51.952;7.618;2022-12-29T13:51:07;9.70;;;1.30;;
3083;SDS011;1552;51.952;7.618;2022-12-29T13:53:37;8.47;;;2.00;;
3083;SDS011;1552;51.952;7.618;2022-12-29T13:56:10;5.83;;;1.57;;
3083;SDS011;1552;51.952;7.618;2022-12-29T13:58:41;4.27;;;1.87;;
3083;SDS011;1552;51.952;7.618;2022-12-29T14:01:12;4.93;;;1.33;;
3083;SDS011;1552;51.952;7.618;2022-12-29T14:03:44;3.80;;;1.67;;
3083;SDS011;1552;51.952;7.618;2022-12-29T14:06:17;12.83;;;1.80;;
3083;SDS011;1552;51.952;7.618;2022-12-29T14:08:46;8.50;;;1.83;;
3083;SDS011;1552;51.952;7.618;2022-12-29T14:11:15;8.80;;;1.50;;
3083;SDS011;1552;51.952;7.618;2022-12-29T14:13:42;9.00;;;2.00;;
3083;SDS011;1552;51.952;7.618;2022-12-29T14:16:21;10.07;;;1.90;;
3083;SDS011;1552;51.952;7.618;2022-12-29T14:18:48;6.23;;;1.87;;
3083;SDS011;1552;51.952;7.618;2022-12-29T14:21:17;7.73;;;1.77;;
3083;SDS011;1552;51.952;7.618;2022-12-29T14:23:45;9.17;;;1.67;;
3083;SDS011;1552;51.952;7.618;2022-12-29T14:26:13;9.07;;;1.90;;
3083;SDS011;1552;51.952;7.618;2022-12-29T14:28:40;5.20;;;1.37;;
3083;SDS011;1552;51.952;7.618;2022-12-29T14:36:35;7.07;;;1.67;;
3083;SDS011;1552;51.952;7.618;2022-12-29T14:39:02;10.53;;;2.37;;
3083;SDS011;1552;51.952;7.618;2022-12-29T14:41:30;7.87;;;1.90;;
3083;SDS011;1552;51.952;7.618;2022-12-29T14:43:59;10.07;;;1.90;;
3083;SDS011;1552;51.952;7.618;2022-12-29T14:46:41;6.20;;;2.00;;
3083;SDS011;1552;51.952;7.618;2022-12-29T14:49:08;8.57;;;1.97;;
3083;SDS011;1552;51.952;7.618;2022-12-29T14:51:42;9.87;;;1.60;;
3083;SDS011;1552;51.952;7.618;2022-12-29T14:56:56;5.80;;;2.00;;
3083;SDS011;1552;51.952;7.618;2022-12-29T14:59:23;6.10;;;1.60;;
3083;SDS011;1552;51.952;7.618;2022-12-29T15:01:52;5.15;;;1.77;;
3083;SDS011;1552;51.952;7.618;2022-12-29T15:04:20;6.33;;;1.60;;
3083;SDS011;1552;51.952;7.618;2022-12-29T15:06:49;5.60;;;1.67;;
3083;SDS011;1552;51.952;7.618;2022-12-29T15:09:20;8.53;;;1.47;;
3083;SDS011;1552;51.952;7.618;2022-12-29T15:11:51;5.47;;;1.43;;
3083;SDS011;1552;51.952;7.618;2022-12-29T15:16:56;5.10;;;1.37;;
3083;SDS011;1552;51.952;7.618;2022-12-29T15:19:24;9.17;;;1.70;;
3083;SDS011;1552;51.952;7.618;2022-12-29T15:21:52;6.77;;;1.33;;
3083;SDS011;1552;51.952;7.618;2022-12-29T15:24:20;6.43;;;1.20;;
3083;SDS011;1552;51.952;7.618;2022-12-29T15:26:49;6.53;;;2.20;;
3083;SDS011;1552;51.952;7.618;2022-12-29T15:29:32;5.77;;;1.33;;
3083;SDS011;1552;51.952;7.618;2022-12-29T15:32:00;7.03;;;1.40;;
3083;SDS011;1552;51.952;7.618;2022-12-29T15:34:28;11.93;;;1.80;;
3083;SDS011;1552;51.952;7.618;2022-12-29T15:36:56;12.33;;;2.80;;
3083;SDS011;1552;51.952;7.618;2022-12-29T15:39:27;9.47;;;1.73;;
3083;SDS011;1552;51.952;7.618;2022-12-29T15:41:56;4.73;;;1.57;;
3083;SDS011;1552;51.952;7.618;2022-12-29T15:44:26;9.97;;;1.27;;
3083;SDS011;1552;51.952;7.618;2022-12-29T15:46:54;7.57;;;2.03;;
3083;SDS011;1552;51.952;7.618;2022-12-29T15:49:20;6.07;;;1.77;;